sensor_id;sensor_type;location;lat;lon;timestamp;pressure;altitude;pressure_sealevel;temperature;humidity
43818;BME280;29868;47.360;18.984;2022-09-30T07:09:06;99509.88;;;15.55;100.00
43818;BME280;29868;47.360;18.984;2022-09-30T07:11:31;99520.34;;;15.55;100.00
43818;BME280;29868;47.360;18.984;2022-09-30T07:13:57;99522.03;;;15.61;100.00
43818;BME280;29868;47.360;18.984;2022-09-30T07:16:22;99533.44;;;15.57;100.00
43818;BME280;29868;47.360;18.984;2022-09-30T07:18:49;99535.00;;;15.69;100.00
43818;BME280;29868;47.360;18.984;2022-09-30T07:21:15;99537.56;;;15.70;100.00
43818;BME280;29868;47.360;18.984;2022-09-30T07:23:41;99545.22;;;15.81;100.00
43818;BME280;29868;47.360;18.984;2022-09-30T07:26:11;99550.47;;;15.81;100.00
43818;BME280;29868;47.360;18.984;2022-09-30T07:28:37;99551.28;;;15.85;100.00
43818;BME280;29868;47.360;18.984;2022-09-30T07:31:08;99551.22;;;15.88;100.00
43818;BME280;29868;47.360;18.984;2022-09-30T07:33:35;99561.41;;;16.03;100.00
43818;BME280;29868;47.360;18.984;2022-09-30T07:36:02;99564.03;;;16.03;100.00
43818;BME280;29868;47.360;18.984;2022-09-30T07:38:31;99559.91;;;15.90;100.00
43818;BME280;29868;47.360;18.984;2022-09-30T07:40:58;99555.38;;;15.98;100.00
43818;BME280;29868;47.360;18.984;2022-09-30T07:43:24;99552.84;;;15.93;100.00
43818;BME280;29868;47.360;18.984;2022-09-30T07:45:52;99561.97;;;16.17;100.00
43818;BME280;29868;47.360;18.984;2022-09-30T07:48:20;99563.63;;;16.23;100.00
43818;BME280;29868;47.360;18.984;2022-09-30T07:51:11;99573.69;;;16.44;100.00
43818;BME280;29868;47.360;18.984;2022-09-30T07:53:36;99581.41;;;16.50;100.00
43818;BME280;29868;47.360;18.984;2022-09-30T07:56:03;99574.28;;;16.57;100.00
43818;BME280;29868;47.360;18.984;2022-09-30T07:58:28;99584.69;;;16.60;100.00
43818;BME280;29868;47.360;18.984;2022-09-30T08:00:54;99585.34;;;16.70;100.00
43818;BME280;29868;47.360;18.984;2022-09-30T08:03:19;99583.63;;;16.69;100.00
43818;BME280;29868;47.360;18.984;2022-09-30T08:05:44;99590.94;;;16.54;100.00
43818;BME280;29868;47.360;18.984;2022-09-30T08:08:10;99592.03;;;16.43;100.00
43818;BME280;29868;47.360;18.984;2022-09-30T08:10:36;99594.50;;;16.52;100.00
43818;BME280;29868;47.360;18.984;2022-09-30T08:13:01;99598.94;;;16.47;100.00
43818;BME280;29868;47.360;18.984;2022-09-30T08:15:26;99598.94;;;16.47;100.00
43818;BME280;29868;47.360;18.984;2022-09-30T08:17:52;99603.06;;;16.60;100.00
43818;BME280;29868;47.360;18.984;2022-09-30T08:20:17;99606.13;;;16.81;100.00
43818;BME280;29868;47.360;18.984;2022-09-30T08:22:42;99610.00;;;17.03;100.00
43818;BME280;29868;47.360;18.984;2022-09-30T08:25:07;99615.47;;;17.31;100.00
43818;BME280;29868;47.360;18.984;2022-09-30T08:27:33;99619.72;;;17.37;100.00
43818;BME280;29868;47.360;18.984;2022-09-30T08:29:58;99626.16;;;17.23;100.00
43818;BME280;29868;47.360;18.984;2022-09-30T08:32:23;99629.13;;;17.10;100.00
43818;BME280;29868;47.360;18.984;2022-09-30T08:34:48;99632.25;;;17.25;100.00
43818;BME280;29868;47.360;18.984;2022-09-30T08:37:14;99645.00;;;17.41;100.00
43818;BME280;29868;47.360;18.984;2022-09-30T08:39:39;99645.84;;;17.43;100.00
43818;BME280;29868;47.360;18.984;2022-09-30T08:52:11;99631.31;;;18.93;100.00
43818;BME280;29868;47.360;18.984;2022-09-30T08:54:39;99644.75;;;19.13;100.00
43818;BME280;29868;47.360;18.984;2022-09-30T08:57:08;99650.69;;;19.20;100.00
43818;BME280;29868;47.360;18.984;2022-09-30T08:59:36;99654.03;;;19.53;100.00
43818;BME280;29868;47.360;18.984;2022-09-30T09:04:36;99658.63;;;20.51;100.00
43818;BME280;29868;47.360;18.984;2022-09-30T09:07:23;99659.81;;;20.17;100.00
43818;BME280;29868;47.360;18.984;2022-09-30T09:12:39;99659.91;;;19.05;100.00
43818;BME280;29868;47.360;18.984;2022-09-30T09:20:19;99669.13;;;19.48;100.00
43818;BME280;29868;47.360;18.984;2022-09-30T09:22:46;99680.81;;;19.67;100.00
43818;BME280;29868;47.360;18.984;2022-09-30T09:25:20;99677.69;;;19.55;100.00
43818;BME280;29868;47.360;18.984;2022-09-30T09:27:49;99691.94;;;19.19;100.00
43818;BME280;29868;47.360;18.984;2022-09-30T09:30:19;99697.47;;;18.81;100.00
43818;BME280;29868;47.360;18.984;2022-09-30T09:32:48;99688.75;;;18.79;100.00
43818;BME280;29868;47.360;18.984;2022-09-30T09:35:16;99696.72;;;18.77;100.00
43818;BME280;29868;47.360;18.984;2022-09-30T09:38:11;99692.31;;;18.78;100.00
43818;BME280;29868;47.360;18.984;2022-09-30T09:48:35;99696.41;;;18.55;100.00
43818;BME280;29868;47.360;18.984;2022-09-30T09:51:17;99706.69;;;18.64;100.00
43818;BME280;29868;47.360;18.984;2022-09-30T09:56:13;99719.59;;;18.74;100.00
43818;BME280;29868;47.360;18.984;2022-09-30T10:01:29;99713.66;;;18.65;100.00
43818;BME280;29868;47.360;18.984;2022-09-30T10:04:07;99714.09;;;18.50;100.00
43818;BME280;29868;47.360;18.984;2022-09-30T10:07:11;99721.81;;;18.56;100.00
43818;BME280;29868;47.360;18.984;2022-09-30T10:09:36;99709.41;;;18.92;100.00
43818;BME280;29868;47.360;18.984;2022-09-30T10:14:30;99720.13;;;19.16;100.00
43818;BME280;29868;47.360;18.984;2022-09-30T10:16:57;99718.25;;;18.90;100.00
43818;BME280;29868;47.360;18.984;2022-09-30T10:19:27;99730.75;;;18.83;100.00
43818;BME280;29868;47.360;18.984;2022-09-30T10:24:33;99735.53;;;19.30;100.00
43818;BME280;29868;47.360;18.984;2022-09-30T10:26:59;99740.97;;;19.24;100.00
43818;BME280;29868;47.360;18.984;2022-09-30T10:31:51;99750.28;;;19.06;100.00
43818;BME280;29868;47.360;18.984;2022-09-30T10:36:41;99751.38;;;18.97;100.00
43818;BME280;29868;47.360;18.984;2022-09-30T10:39:19;99747.66;;;19.06;100.00
43818;BME280;29868;47.360;18.984;2022-09-30T10:41:47;99755.06;;;19.23;100.00
43818;BME280;29868;47.360;18.984;2022-09-30T10:44:18;99760.25;;;19.54;100.00
43818;BME280;29868;47.360;18.984;2022-09-30T10:46:44;99761.56;;;19.70;100.00
43818;BME280;29868;47.360;18.984;2022-09-30T10:49:19;99770.84;;;19.82;100.00
43818;BME280;29868;47.360;18.984;2022-09-30T10:51:47;99778.91;;;19.46;100.00
43818;BME280;29868;47.360;18.984;2022-09-30T10:54:35;99771.84;;;19.48;100.00
43818;BME280;29868;47.360;18.984;2022-09-30T10:57:00;99779.47;;;19.28;100.00
43818;BME280;29868;47.360;18.984;2022-09-30T10:59:32;99779.66;;;19.22;100.00
43818;BME280;29868;47.360;18.984;2022-09-30T11:04:49;99805.91;;;19.25;100.00
43818;BME280;29868;47.360;18.984;2022-09-30T11:09:55;99817.03;;;19.34;100.00
43818;BME280;29868;47.360;18.984;2022-09-30T11:12:29;99836.88;;;19.15;100.00
43818;BME280;29868;47.360;18.984;2022-09-30T11:14:58;99837.44;;;18.95;100.00
43818;BME280;29868;47.360;18.984;2022-09-30T11:17:27;99848.31;;;18.83;100.00
43818;BME280;29868;47.360;18.984;2022-09-30T11:24:51;99861.47;;;20.06;100.00
43818;BME280;29868;47.360;18.984;2022-09-30T11:32:36;99866.59;;;20.10;100.00
43818;BME280;29868;47.360;18.984;2022-09-30T11:37:50;99868.66;;;19.71;100.00
43818;BME280;29868;47.360;18.984;2022-09-30T11:40:37;99875.41;;;20.09;100.00
43818;BME280;29868;47.360;18.984;2022-09-30T11:43:08;99870.69;;;20.19;100.00
43818;BME280;29868;47.360;18.984;2022-09-30T11:48:33;99895.50;;;20.13;100.00
43818;BME280;29868;47.360;18.984;2022-09-30T11:53:32;99898.13;;;20.70;100.00
43818;BME280;29868;47.360;18.984;2022-09-30T11:58:35;99888.94;;;21.56;100.00
43818;BME280;29868;47.360;18.984;2022-09-30T12:03:35;99895.28;;;21.52;100.00
43818;BME280;29868;47.360;18.984;2022-09-30T12:06:03;99887.28;;;21.54;100.00
43818;BME280;29868;47.360;18.984;2022-09-30T12:08:36;99894.59;;;21.21;100.00
43818;BME280;29868;47.360;18.984;2022-09-30T12:11:09;99903.53;;;21.17;100.00
43818;BME280;29868;47.360;18.984;2022-09-30T12:13:39;99922.47;;;21.54;100.00
43818;BME280;29868;47.360;18.984;2022-09-30T12:16:06;99919.34;;;21.18;100.00
43818;BME280;29868;47.360;18.984;2022-09-30T12:18:45;99917.53;;;20.94;100.00
43818;BME280;29868;47.360;18.984;2022-09-30T12:21:20;99924.78;;;20.88;100.00
43818;BME280;29868;47.360;18.984;2022-09-30T12:23:48;99930.97;;;20.61;100.00
43818;BME280;29868;47.360;18.984;2022-09-30T12:26:17;99940.44;;;20.67;100.00
43818;BME280;29868;47.360;18.984;2022-09-30T12:37:24;99940.88;;;20.53;100.00
43818;BME280;29868;47.360;18.984;2022-09-30T12:42:20;99946.56;;;20.69;100.00
43818;BME280;29868;47.360;18.984;2022-09-30T12:47:30;99954.66;;;20.34;100.00
43818;BME280;29868;47.360;18.984;2022-09-30T12:49:56;99957.84;;;20.16;100.00
43818;BME280;29868;47.360;18.984;2022-09-30T12:52:22;99965.38;;;19.99;100.00
43818;BME280;29868;47.360;18.984;2022-09-30T12:54:55;99964.66;;;19.93;100.00
43818;BME280;29868;47.360;18.984;2022-09-30T12:57:27;99968.69;;;20.05;100.00
43818;BME280;29868;47.360;18.984;2022-09-30T12:59:54;99976.09;;;19.92;100.00
43818;BME280;29868;47.360;18.984;2022-09-30T13:02:31;99978.28;;;19.77;100.00
43818;BME280;29868;47.360;18.984;2022-09-30T13:08:07;99977.56;;;19.72;100.00
43818;BME280;29868;47.360;18.984;2022-09-30T13:15:43;99991.88;;;19.63;100.00
43818;BME280;29868;47.360;18.984;2022-09-30T13:20:50;100005.84;;;19.32;100.00
43818;BME280;29868;47.360;18.984;2022-09-30T13:26:30;100031.06;;;19.05;100.00
43818;BME280;29868;47.360;18.984;2022-09-30T13:28:50;100024.00;;;19.07;100.00
43818;BME280;29868;47.360;18.984;2022-09-30T13:31:19;100027.38;;;19.12;100.00
43818;BME280;29868;47.360;18.984;2022-09-30T13:39:16;100041.81;;;19.99;100.00
43818;BME280;29868;47.360;18.984;2022-09-30T13:41:41;100031.03;;;20.67;100.00
43818;BME280;29868;47.360;18.984;2022-09-30T13:44:15;100026.63;;;20.68;100.00
43818;BME280;29868;47.360;18.984;2022-09-30T13:46:53;100021.72;;;20.83;100.00
43818;BME280;29868;47.360;18.984;2022-09-30T13:49:37;100016.97;;;20.67;100.00
43818;BME280;29868;47.360;18.984;2022-09-30T13:52:07;100020.94;;;20.53;100.00
43818;BME280;29868;47.360;18.984;2022-09-30T13:54:37;100025.50;;;20.45;100.00
43818;BME280;29868;47.360;18.984;2022-09-30T13:57:10;100025.97;;;20.61;100.00
43818;BME280;29868;47.360;18.984;2022-09-30T13:59:54;100025.00;;;20.92;100.00
43818;BME280;29868;47.360;18.984;2022-09-30T14:02:31;100013.94;;;20.79;100.00
43818;BME280;29868;47.360;18.984;2022-09-30T14:05:09;100014.97;;;20.75;100.00
43818;BME280;29868;47.360;18.984;2022-09-30T14:15:16;100023.94;;;20.69;100.00
43818;BME280;29868;47.360;18.984;2022-09-30T14:22:50;100025.84;;;20.05;100.00
43818;BME280;29868;47.360;18.984;2022-09-30T14:25:17;100021.50;;;20.02;100.00
43818;BME280;29868;47.360;18.984;2022-09-30T14:28:02;100022.72;;;20.22;100.00
43818;BME280;29868;47.360;18.984;2022-09-30T14:30:28;100017.63;;;20.15;100.00
43818;BME280;29868;47.360;18.984;2022-09-30T14:35:23;100018.50;;;20.14;100.00
43818;BME280;29868;47.360;18.984;2022-09-30T14:40:25;100031.66;;;19.85;100.00
43818;BME280;29868;47.360;18.984;2022-09-30T14:42:52;100035.75;;;19.64;100.00
43818;BME280;29868;47.360;18.984;2022-09-30T14:45:25;100031.19;;;19.36;100.00
43818;BME280;29868;47.360;18.984;2022-09-30T14:47:52;100031.53;;;19.23;100.00
43818;BME280;29868;47.360;18.984;2022-09-30T14:50:20;100033.44;;;19.16;100.00
43818;BME280;29868;47.360;18.984;2022-09-30T14:52:47;100033.06;;;18.95;100.00
43818;BME280;29868;47.360;18.984;2022-09-30T14:57:46;100026.66;;;18.68;100.00
43818;BME280;29868;47.360;18.984;2022-09-30T15:00:18;100037.38;;;18.59;100.00
43818;BME280;29868;47.360;18.984;2022-09-30T15:02:44;100035.59;;;18.61;100.00
43818;BME280;29868;47.360;18.984;2022-09-30T15:05:11;100047.69;;;18.68;100.00
43818;BME280;29868;47.360;18.984;2022-09-30T15:07:40;100044.88;;;18.79;100.00
43818;BME280;29868;47.360;18.984;2022-09-30T15:10:06;100048.75;;;18.61;100.00
43818;BME280;29868;47.360;18.984;2022-09-30T15:12:31;100056.91;;;18.49;100.00
43818;BME280;29868;47.360;18.984;2022-09-30T15:15:00;100050.84;;;18.45;100.00
43818;BME280;29868;47.360;18.984;2022-09-30T15:17:34;100056.06;;;18.47;100.00
43818;BME280;29868;47.360;18.984;2022-09-30T15:20:00;100059.88;;;18.32;100.00
43818;BME280;29868;47.360;18.984;2022-09-30T15:22:26;100065.34;;;18.23;100.00
43818;BME280;29868;47.360;18.984;2022-09-30T15:24:52;100069.78;;;18.18;100.00
43818;BME280;29868;47.360;18.984;2022-09-30T15:27:31;100054.41;;;17.99;100.00
43818;BME280;29868;47.360;18.984;2022-09-30T15:30:00;100064.38;;;17.82;100.00
43818;BME280;29868;47.360;18.984;2022-09-30T15:32:26;100057.50;;;17.73;100.00
43818;BME280;29868;47.360;18.984;2022-09-30T15:34:52;100061.16;;;17.65;100.00
43818;BME280;29868;47.360;18.984;2022-09-30T15:37:25;100067.34;;;17.62;100.00
43818;BME280;29868;47.360;18.984;2022-09-30T15:39:57;100074.63;;;17.46;100.00
43818;BME280;29868;47.360;18.984;2022-09-30T15:43:03;100065.91;;;17.44;100.00
43818;BME280;29868;47.360;18.984;2022-09-30T15:47:54;100078.38;;;17.30;100.00
43818;BME280;29868;47.360;18.984;2022-09-30T15:53:04;100094.16;;;17.29;100.00
43818;BME280;29868;47.360;18.984;2022-09-30T15:55:37;100090.09;;;17.09;100.00
43818;BME280;29868;47.360;18.984;2022-09-30T15:58:25;100091.03;;;17.05;100.00
43818;BME280;29868;47.360;18.984;2022-09-30T16:00:51;100097.34;;;16.92;100.00
43818;BME280;29868;47.360;18.984;2022-09-30T16:05:45;100095.91;;;16.68;100.00
43818;BME280;29868;47.360;18.984;2022-09-30T16:08:19;100102.22;;;16.53;100.00
43818;BME280;29868;47.360;18.984;2022-09-30T16:10:53;100104.94;;;16.44;100.00
43818;BME280;29868;47.360;18.984;2022-09-30T16:13:20;100105.97;;;16.34;100.00
43818;BME280;29868;47.360;18.984;2022-09-30T16:15:46;100112.19;;;16.23;100.00
43818;BME280;29868;47.360;18.984;2022-09-30T16:18:18;100120.19;;;16.11;100.00
43818;BME280;29868;47.360;18.984;2022-09-30T16:20:55;100122.88;;;16.05;100.00
43818;BME280;29868;47.360;18.984;2022-09-30T16:23:33;100117.59;;;16.08;100.00
43818;BME280;29868;47.360;18.984;2022-09-30T16:28:37;100121.16;;;16.01;100.00
43818;BME280;29868;47.360;18.984;2022-09-30T16:31:02;100114.41;;;15.80;100.00
43818;BME280;29868;47.360;18.984;2022-09-30T16:33:28;100122.34;;;15.72;100.00
43818;BME280;29868;47.360;18.984;2022-09-30T16:35:53;100104.13;;;15.54;100.00
43818;BME280;29868;47.360;18.984;2022-09-30T16:38:19;100112.91;;;15.45;100.00
43818;BME280;29868;47.360;18.984;2022-09-30T16:40:44;100111.25;;;15.33;100.00
43818;BME280;29868;47.360;18.984;2022-09-30T16:43:09;100111.28;;;15.32;100.00
43818;BME280;29868;47.360;18.984;2022-09-30T16:45:35;100116.38;;;15.49;100.00
43818;BME280;29868;47.360;18.984;2022-09-30T16:48:01;100128.56;;;15.54;100.00
43818;BME280;29868;47.360;18.984;2022-09-30T16:52:57;100136.72;;;15.13;100.00
43818;BME280;29868;47.360;18.984;2022-09-30T16:55:23;100136.78;;;15.02;100.00
43818;BME280;29868;47.360;18.984;2022-09-30T16:57:49;100139.44;;;14.95;100.00
43818;BME280;29868;47.360;18.984;2022-09-30T17:00:15;100140.34;;;14.88;100.00
43818;BME280;29868;47.360;18.984;2022-09-30T17:02:42;100147.31;;;14.89;100.00
43818;BME280;29868;47.360;18.984;2022-09-30T17:05:11;100150.81;;;14.88;100.00
43818;BME280;29868;47.360;18.984;2022-09-30T17:07:37;100149.97;;;14.79;100.00
43818;BME280;29868;47.360;18.984;2022-09-30T17:10:02;100141.28;;;14.79;100.00
43818;BME280;29868;47.360;18.984;2022-09-30T17:12:27;100138.66;;;14.82;100.00
43818;BME280;29868;47.360;18.984;2022-09-30T17:14:52;100130.78;;;14.80;100.00
43818;BME280;29868;47.360;18.984;2022-09-30T17:17:20;100139.53;;;14.79;100.00
43818;BME280;29868;47.360;18.984;2022-09-30T17:19:45;100151.72;;;14.83;100.00
43818;BME280;29868;47.360;18.984;2022-09-30T17:22:10;100151.72;;;14.82;100.00
43818;BME280;29868;47.360;18.984;2022-09-30T17:24:36;100155.22;;;14.76;100.00
43818;BME280;29868;47.360;18.984;2022-09-30T17:27:01;100157.84;;;14.73;100.00
43818;BME280;29868;47.360;18.984;2022-09-30T17:29:26;100155.22;;;14.73;100.00
43818;BME280;29868;47.360;18.984;2022-09-30T17:31:52;100151.75;;;14.73;100.00
43818;BME280;29868;47.360;18.984;2022-09-30T17:34:18;100154.38;;;14.77;100.00
43818;BME280;29868;47.360;18.984;2022-09-30T17:36:43;100159.59;;;14.74;100.00
43818;BME280;29868;47.360;18.984;2022-09-30T17:39:08;100159.63;;;14.68;100.00
43818;BME280;29868;47.360;18.984;2022-09-30T17:41:35;100160.53;;;14.61;100.00
43818;BME280;29868;47.360;18.984;2022-09-30T17:44:19;100170.13;;;14.48;100.00
43818;BME280;29868;47.360;18.984;2022-09-30T17:46:45;100176.25;;;14.40;100.00
43818;BME280;29868;47.360;18.984;2022-09-30T17:49:13;100167.56;;;14.24;100.00
43818;BME280;29868;47.360;18.984;2022-09-30T17:51:41;100177.19;;;14.08;100.00
43818;BME280;29868;47.360;18.984;2022-09-30T17:54:06;100178.06;;;14.01;100.00
43818;BME280;29868;47.360;18.984;2022-09-30T17:56:32;100171.97;;;13.90;100.00
43818;BME280;29868;47.360;18.984;2022-09-30T17:58:57;100177.22;;;13.85;100.00
43818;BME280;29868;47.360;18.984;2022-09-30T18:01:25;100186.78;;;13.77;100.00
43818;BME280;29868;47.360;18.984;2022-09-30T18:03:50;100185.94;;;13.72;100.00
43818;BME280;29868;47.360;18.984;2022-09-30T18:06:19;100170.25;;;13.67;100.00
43818;BME280;29868;47.360;18.984;2022-09-30T18:08:50;100176.34;;;13.72;100.00
43818;BME280;29868;47.360;18.984;2022-09-30T18:11:23;100186.81;;;13.68;100.00
43818;BME280;29868;47.360;18.984;2022-09-30T18:13:52;100184.16;;;13.52;100.00
43818;BME280;29868;47.360;18.984;2022-09-30T18:16:21;100185.94;;;13.49;100.00
43818;BME280;29868;47.360;18.984;2022-09-30T18:18:48;100191.97;;;13.40;100.00
43818;BME280;29868;47.360;18.984;2022-09-30T18:21:13;100191.13;;;13.30;100.00
43818;BME280;29868;47.360;18.984;2022-09-30T18:23:38;100185.00;;;13.25;100.00
43818;BME280;29868;47.360;18.984;2022-09-30T18:26:04;100205.88;;;13.28;100.00
43818;BME280;29868;47.360;18.984;2022-09-30T18:28:29;100198.91;;;13.24;100.00
43818;BME280;29868;47.360;18.984;2022-09-30T18:30:54;100195.41;;;13.19;100.00
43818;BME280;29868;47.360;18.984;2022-09-30T18:33:20;100197.13;;;13.22;100.00
43818;BME280;29868;47.360;18.984;2022-09-30T18:35:46;100204.13;;;13.26;100.00
43818;BME280;29868;47.360;18.984;2022-09-30T18:38:12;100210.22;;;13.23;100.00
43818;BME280;29868;47.360;18.984;2022-09-30T18:40:40;100211.97;;;13.24;100.00
43818;BME280;29868;47.360;18.984;2022-09-30T18:43:05;100207.63;;;13.28;100.00
43818;BME280;29868;47.360;18.984;2022-09-30T18:45:31;100199.81;;;13.35;100.00
43818;BME280;29868;47.360;18.984;2022-09-30T18:47:58;100205.03;;;13.35;100.00
43818;BME280;29868;47.360;18.984;2022-09-30T18:50:24;100201.56;;;13.46;100.00
43818;BME280;29868;47.360;18.984;2022-09-30T18:52:50;100212.88;;;13.48;100.00
43818;BME280;29868;47.360;18.984;2022-09-30T18:55:16;100221.59;;;13.50;100.00
43818;BME280;29868;47.360;18.984;2022-09-30T18:57:42;100234.63;;;13.53;100.00
43818;BME280;29868;47.360;18.984;2022-09-30T19:00:08;100226.81;;;13.57;100.00
43818;BME280;29868;47.360;18.984;2022-09-30T19:02:36;100220.72;;;13.66;100.00
43818;BME280;29868;47.360;18.984;2022-09-30T19:05:04;100228.56;;;13.74;100.00
43818;BME280;29868;47.360;18.984;2022-09-30T19:07:29;100230.31;;;13.79;100.00
43818;BME280;29868;47.360;18.984;2022-09-30T19:09:54;100236.41;;;13.87;100.00
43818;BME280;29868;47.360;18.984;2022-09-30T19:12:20;100241.63;;;13.97;100.00
43818;BME280;29868;47.360;18.984;2022-09-30T19:14:46;100254.66;;;13.89;100.00
43818;BME280;29868;47.360;18.984;2022-09-30T19:17:12;100252.94;;;13.94;100.00
43818;BME280;29868;47.360;18.984;2022-09-30T19:19:37;100255.53;;;13.97;100.00
43818;BME280;29868;47.360;18.984;2022-09-30T19:22:05;100279.06;;;14.03;100.00
43818;BME280;29868;47.360;18.984;2022-09-30T19:24:30;100301.69;;;14.04;100.00
43818;BME280;29868;47.360;18.984;2022-09-30T19:26:56;100279.91;;;14.31;100.00
43818;BME280;29868;47.360;18.984;2022-09-30T19:29:21;100269.44;;;14.47;100.00
43818;BME280;29868;47.360;18.984;2022-09-30T19:31:47;100276.44;;;14.37;100.00
43818;BME280;29868;47.360;18.984;2022-09-30T19:34:12;100259.88;;;14.35;100.00
43818;BME280;29868;47.360;18.984;2022-09-30T19:36:40;100251.16;;;14.34;100.00
43818;BME280;29868;47.360;18.984;2022-09-30T19:39:05;100256.38;;;14.31;100.00
43818;BME280;29868;47.360;18.984;2022-09-30T19:41:30;100259.00;;;14.44;100.00
43818;BME280;29868;47.360;18.984;2022-09-30T19:43:56;100269.47;;;14.41;100.00
43818;BME280;29868;47.360;18.984;2022-09-30T19:46:21;100269.44;;;14.39;100.00
43818;BME280;29868;47.360;18.984;2022-09-30T19:48:47;100273.81;;;14.39;100.00
43818;BME280;29868;47.360;18.984;2022-09-30T19:51:14;100274.69;;;14.41;100.00
43818;BME280;29868;47.360;18.984;2022-09-30T19:53:42;100276.41;;;14.45;100.00
43818;BME280;29868;47.360;18.984;2022-09-30T19:56:11;100270.31;;;14.50;100.00
43818;BME280;29868;47.360;18.984;2022-09-30T19:58:38;100271.16;;;14.78;100.00
43818;BME280;29868;47.360;18.984;2022-09-30T20:01:04;100263.34;;;14.68;100.00
43818;BME280;29868;47.360;18.984;2022-09-30T20:03:30;100257.25;;;14.58;100.00
43818;BME280;29868;47.360;18.984;2022-09-30T20:05:56;100257.25;;;14.58;100.00
43818;BME280;29868;47.360;18.984;2022-09-30T20:08:21;100253.78;;;14.56;100.00
43818;BME280;29868;47.360;18.984;2022-09-30T20:10:46;100262.47;;;14.63;100.00
43818;BME280;29868;47.360;18.984;2022-09-30T20:13:12;100265.97;;;14.54;100.00
43818;BME280;29868;47.360;18.984;2022-09-30T20:15:37;100267.72;;;14.50;100.00
43818;BME280;29868;47.360;18.984;2022-09-30T20:18:15;100258.13;;;14.49;100.00
43818;BME280;29868;47.360;18.984;2022-09-30T20:20:40;100250.22;;;14.81;100.00
